sensor_id;sensor_type;location;lat;lon;timestamp;pressure;altitude;pressure_sealevel;temperature;humidity
38466;BME280;24244;51.950;5.902;2023-07-13T00:01:55;101272.94;;;18.49;63.49
38466;BME280;24244;51.950;5.902;2023-07-13T00:04:23;101277.50;;;18.48;63.44
38466;BME280;24244;51.950;5.902;2023-07-13T00:06:52;101276.09;;;18.46;63.43
38466;BME280;24244;51.950;5.902;2023-07-13T00:09:20;101271.75;;;18.45;63.43
38466;BME280;24244;51.950;5.902;2023-07-13T00:11:50;101280.66;;;18.45;63.42
38466;BME280;24244;51.950;5.902;2023-07-13T00:14:17;101279.22;;;18.43;63.42
38466;BME280;24244;51.950;5.902;2023-07-13T00:16:44;101271.63;;;18.39;63.46
38466;BME280;24244;51.950;5.902;2023-07-13T00:19:13;101278.50;;;18.35;63.45
38466;BME280;24244;51.950;5.902;2023-07-13T00:21:40;101285.94;;;18.33;63.63
38466;BME280;24244;51.950;5.902;2023-07-13T00:24:07;101292.41;;;18.32;63.54
38466;BME280;24244;51.950;5.902;2023-07-13T00:26:34;101285.38;;;18.31;63.62
38466;BME280;24244;51.950;5.902;2023-07-13T00:29:01;101289.94;;;18.31;63.60
38466;BME280;24244;51.950;5.902;2023-07-13T00:31:28;101282.69;;;18.31;63.63
38466;BME280;24244;51.950;5.902;2023-07-13T00:33:54;101281.03;;;18.30;63.58
38466;BME280;24244;51.950;5.902;2023-07-13T00:36:23;101284.78;;;18.29;63.79
38466;BME280;24244;51.950;5.902;2023-07-13T00:38:49;101284.16;;;18.27;63.70
38466;BME280;24244;51.950;5.902;2023-07-13T00:41:16;101285.22;;;18.26;63.64
38466;BME280;24244;51.950;5.902;2023-07-13T00:43:43;101288.97;;;18.25;63.74
38466;BME280;24244;51.950;5.902;2023-07-13T00:46:24;101295.19;;;18.26;63.68
38466;BME280;24244;51.950;5.902;2023-07-13T00:49:13;101282.97;;;18.23;63.76
38466;BME280;24244;51.950;5.902;2023-07-13T00:51:45;101282.59;;;18.20;63.73
38466;BME280;24244;51.950;5.902;2023-07-13T00:54:18;101283.88;;;18.17;63.78
38466;BME280;24244;51.950;5.902;2023-07-13T00:56:48;101284.09;;;18.16;63.97
38466;BME280;24244;51.950;5.902;2023-07-13T00:59:17;101285.34;;;18.13;64.11
38466;BME280;24244;51.950;5.902;2023-07-13T01:01:45;101284.53;;;18.13;64.14
38466;BME280;24244;51.950;5.902;2023-07-13T01:04:13;101287.47;;;18.11;64.10
38466;BME280;24244;51.950;5.902;2023-07-13T01:06:42;101286.66;;;18.11;64.05
38466;BME280;24244;51.950;5.902;2023-07-13T01:09:11;101289.53;;;18.09;64.04
38466;BME280;24244;51.950;5.902;2023-07-13T01:11:40;101299.69;;;18.07;64.17
38466;BME280;24244;51.950;5.902;2023-07-13T01:14:08;101299.69;;;18.07;64.19
38466;BME280;24244;51.950;5.902;2023-07-13T01:16:36;101298.88;;;18.07;63.97
38466;BME280;24244;51.950;5.902;2023-07-13T01:19:08;101290.81;;;18.07;64.04
38466;BME280;24244;51.950;5.902;2023-07-13T01:21:41;101290.19;;;18.05;64.11
38466;BME280;24244;51.950;5.902;2023-07-13T01:24:09;101295.56;;;18.05;64.14
38466;BME280;24244;51.950;5.902;2023-07-13T01:26:36;101293.97;;;18.04;64.12
38466;BME280;24244;51.950;5.902;2023-07-13T01:29:02;101297.06;;;18.00;64.33
38466;BME280;24244;51.950;5.902;2023-07-13T01:31:29;101297.28;;;17.99;64.23
38466;BME280;24244;51.950;5.902;2023-07-13T01:33:56;101296.47;;;17.98;64.37
38466;BME280;24244;51.950;5.902;2023-07-13T01:36:24;101288.66;;;17.97;64.40
38466;BME280;24244;51.950;5.902;2023-07-13T01:38:52;101302.53;;;17.94;64.44
38466;BME280;24244;51.950;5.902;2023-07-13T01:41:19;101301.34;;;17.90;64.49
38466;BME280;24244;51.950;5.902;2023-07-13T01:43:46;101302.38;;;17.89;64.53
38466;BME280;24244;51.950;5.902;2023-07-13T01:46:14;101298.03;;;17.88;64.56
38466;BME280;24244;51.950;5.902;2023-07-13T01:48:43;101290.19;;;17.86;64.73
38466;BME280;24244;51.950;5.902;2023-07-13T01:51:10;101289.56;;;17.84;64.66
38466;BME280;24244;51.950;5.902;2023-07-13T01:53:37;101294.38;;;17.82;64.77
38466;BME280;24244;51.950;5.902;2023-07-13T01:56:05;101283.22;;;17.79;64.71
38466;BME280;24244;51.950;5.902;2023-07-13T01:58:32;101281.78;;;17.76;64.85
38466;BME280;24244;51.950;5.902;2023-07-13T02:00:59;101281.19;;;17.74;64.89
38466;BME280;24244;51.950;5.902;2023-07-13T02:03:26;101283.88;;;17.74;64.87
38466;BME280;24244;51.950;5.902;2023-07-13T02:05:52;101288.44;;;17.74;65.02
38466;BME280;24244;51.950;5.902;2023-07-13T02:08:19;101290.50;;;17.72;64.99
38466;BME280;24244;51.950;5.902;2023-07-13T02:10:46;101292.00;;;17.68;64.89
38466;BME280;24244;51.950;5.902;2023-07-13T02:13:14;101302.38;;;17.64;65.07
38466;BME280;24244;51.950;5.902;2023-07-13T02:15:41;101296.38;;;17.62;65.17
38466;BME280;24244;51.950;5.902;2023-07-13T02:18:08;101297.63;;;17.59;65.41
38466;BME280;24244;51.950;5.902;2023-07-13T02:20:35;101293.28;;;17.58;65.61
38466;BME280;24244;51.950;5.902;2023-07-13T02:23:02;101290.59;;;17.58;65.15
38466;BME280;24244;51.950;5.902;2023-07-13T02:25:28;101301.34;;;17.58;65.40
38466;BME280;24244;51.950;5.902;2023-07-13T02:27:55;101298.03;;;17.56;65.50
38466;BME280;24244;51.950;5.902;2023-07-13T02:30:23;101298.03;;;17.56;65.53
38466;BME280;24244;51.950;5.902;2023-07-13T02:32:51;101303.06;;;17.53;65.59
38466;BME280;24244;51.950;5.902;2023-07-13T02:35:18;101301.63;;;17.50;65.80
38466;BME280;24244;51.950;5.902;2023-07-13T02:37:44;101301.63;;;17.50;65.67
38466;BME280;24244;51.950;5.902;2023-07-13T02:40:11;101307.19;;;17.49;65.93
38466;BME280;24244;51.950;5.902;2023-07-13T02:42:40;101305.19;;;17.44;65.87
38466;BME280;24244;51.950;5.902;2023-07-13T02:45:08;101312.63;;;17.42;65.98
38466;BME280;24244;51.950;5.902;2023-07-13T02:47:37;101306.88;;;17.39;66.36
38466;BME280;24244;51.950;5.902;2023-07-13T02:50:05;101307.72;;;17.39;66.10
38466;BME280;24244;51.950;5.902;2023-07-13T02:52:32;101307.91;;;17.38;66.01
38466;BME280;24244;51.950;5.902;2023-07-13T02:54:59;101313.50;;;17.36;66.13
38466;BME280;24244;51.950;5.902;2023-07-13T02:57:26;101316.41;;;17.35;66.35
38466;BME280;24244;51.950;5.902;2023-07-13T02:59:54;101312.31;;;17.32;66.43
38466;BME280;24244;51.950;5.902;2023-07-13T03:02:21;101315.19;;;17.31;66.49
38466;BME280;24244;51.950;5.902;2023-07-13T03:04:49;101324.50;;;17.28;66.58
38466;BME280;24244;51.950;5.902;2023-07-13T03:07:16;101322.28;;;17.25;66.63
38466;BME280;24244;51.950;5.902;2023-07-13T03:09:43;101316.28;;;17.23;66.73
38466;BME280;24244;51.950;5.902;2023-07-13T03:12:09;101322.69;;;17.22;66.87
38466;BME280;24244;51.950;5.902;2023-07-13T03:14:36;101317.53;;;17.20;66.83
38466;BME280;24244;51.950;5.902;2023-07-13T03:17:03;101326.63;;;17.19;66.90
38466;BME280;24244;51.950;5.902;2023-07-13T03:19:30;101327.69;;;17.18;66.97
38466;BME280;24244;51.950;5.902;2023-07-13T03:21:58;101334.91;;;17.18;66.83
38466;BME280;24244;51.950;5.902;2023-07-13T03:24:25;101327.47;;;17.13;67.12
38466;BME280;24244;51.950;5.902;2023-07-13T03:26:52;101335.53;;;17.13;67.32
38466;BME280;24244;51.950;5.902;2023-07-13T03:29:19;101335.78;;;17.12;67.28
38466;BME280;24244;51.950;5.902;2023-07-13T03:31:46;101340.53;;;17.10;67.49
38466;BME280;24244;51.950;5.902;2023-07-13T03:34:13;101343.44;;;17.08;67.44
38466;BME280;24244;51.950;5.902;2023-07-13T03:36:39;101334.75;;;17.06;67.55
38466;BME280;24244;51.950;5.902;2023-07-13T03:39:08;101337.44;;;17.06;67.47
38466;BME280;24244;51.950;5.902;2023-07-13T03:41:35;101339.31;;;17.06;67.52
38466;BME280;24244;51.950;5.902;2023-07-13T03:44:02;101339.53;;;17.04;67.71
38466;BME280;24244;51.950;5.902;2023-07-13T03:46:30;101338.47;;;17.05;67.61
38466;BME280;24244;51.950;5.902;2023-07-13T03:48:57;101344.28;;;17.02;68.01
38466;BME280;24244;51.950;5.902;2023-07-13T03:51:24;101352.56;;;17.01;68.09
38466;BME280;24244;51.950;5.902;2023-07-13T03:53:51;101354.00;;;17.03;68.04
38466;BME280;24244;51.950;5.902;2023-07-13T03:56:19;101355.88;;;17.03;68.02
38466;BME280;24244;51.950;5.902;2023-07-13T03:58:47;101358.75;;;17.01;68.19
38466;BME280;24244;51.950;5.902;2023-07-13T04:01:15;101356.91;;;17.02;68.22
38466;BME280;24244;51.950;5.902;2023-07-13T04:03:43;101356.91;;;17.02;68.24
38466;BME280;24244;51.950;5.902;2023-07-13T04:06:15;101358.75;;;17.01;68.51
38466;BME280;24244;51.950;5.902;2023-07-13T04:08:42;101357.31;;;16.99;68.32
38466;BME280;24244;51.950;5.902;2023-07-13T04:11:09;101357.09;;;17.00;68.68
38466;BME280;24244;51.950;5.902;2023-07-13T04:13:37;101362.47;;;17.00;68.37
38466;BME280;24244;51.950;5.902;2023-07-13T04:16:04;101364.13;;;17.01;68.81
38466;BME280;24244;51.950;5.902;2023-07-13T04:18:31;101362.28;;;17.02;68.79
38466;BME280;24244;51.950;5.902;2023-07-13T04:20:58;101364.13;;;17.01;68.76
38466;BME280;24244;51.950;5.902;2023-07-13T04:23:24;101357.09;;;17.00;68.85
38466;BME280;24244;51.950;5.902;2023-07-13T04:25:52;101367.66;;;17.02;68.75
38466;BME280;24244;51.950;5.902;2023-07-13T04:28:20;101362.47;;;17.00;68.88
38466;BME280;24244;51.950;5.902;2023-07-13T04:30:49;101366.00;;;17.01;69.18
38466;BME280;24244;51.950;5.902;2023-07-13T04:33:16;101371.34;;;17.01;69.17
38466;BME280;24244;51.950;5.902;2023-07-13T04:35:46;101369.50;;;17.01;69.03
38466;BME280;24244;51.950;5.902;2023-07-13T04:38:15;101375.91;;;17.00;69.28
38466;BME280;24244;51.950;5.902;2023-07-13T04:40:42;101369.72;;;17.00;69.24
38466;BME280;24244;51.950;5.902;2023-07-13T04:43:09;101370.53;;;17.00;69.33
38466;BME280;24244;51.950;5.902;2023-07-13T04:45:36;101365.38;;;16.99;69.51
38466;BME280;24244;51.950;5.902;2023-07-13T04:48:05;101379.88;;;16.98;69.45
38466;BME280;24244;51.950;5.902;2023-07-13T04:50:32;101377.19;;;16.98;69.81
38466;BME280;24244;51.950;5.902;2023-07-13T04:52:59;101378.22;;;16.97;70.00
38466;BME280;24244;51.950;5.902;2023-07-13T04:55:26;101381.47;;;16.99;69.68
38466;BME280;24244;51.950;5.902;2023-07-13T04:57:56;101385.00;;;16.99;69.80
38466;BME280;24244;51.950;5.902;2023-07-13T05:00:25;101385.00;;;16.99;69.92
38466;BME280;24244;51.950;5.902;2023-07-13T05:02:52;101391.19;;;17.00;69.95
38466;BME280;24244;51.950;5.902;2023-07-13T05:05:20;101390.38;;;16.99;70.22
38466;BME280;24244;51.950;5.902;2023-07-13T05:07:49;101397.59;;;16.99;70.00
38466;BME280;24244;51.950;5.902;2023-07-13T05:10:16;101392.22;;;16.99;70.17
38466;BME280;24244;51.950;5.902;2023-07-13T05:12:43;101389.34;;;17.00;70.26
38466;BME280;24244;51.950;5.902;2023-07-13T05:15:10;101405.44;;;17.00;70.50
38466;BME280;24244;51.950;5.902;2023-07-13T05:17:38;101401.72;;;17.01;70.57
38466;BME280;24244;51.950;5.902;2023-07-13T05:20:09;101403.59;;;17.01;70.50
38466;BME280;24244;51.950;5.902;2023-07-13T05:22:37;101402.56;;;17.02;70.62
38466;BME280;24244;51.950;5.902;2023-07-13T05:25:05;101412.28;;;17.03;70.90
38466;BME280;24244;51.950;5.902;2023-07-13T05:27:33;101413.31;;;17.02;70.82
38466;BME280;24244;51.950;5.902;2023-07-13T05:30:00;101417.03;;;17.01;71.01
38466;BME280;24244;51.950;5.902;2023-07-13T05:32:27;101417.44;;;17.04;71.04
38466;BME280;24244;51.950;5.902;2023-07-13T05:34:55;101418.25;;;17.05;71.21
38466;BME280;24244;51.950;5.902;2023-07-13T05:37:22;101417.00;;;17.07;71.01
38466;BME280;24244;51.950;5.902;2023-07-13T05:39:50;101415.13;;;17.08;71.24
38466;BME280;24244;51.950;5.902;2023-07-13T05:42:17;101420.09;;;17.11;71.43
38466;BME280;24244;51.950;5.902;2023-07-13T05:44:45;101423.59;;;17.11;71.50
38466;BME280;24244;51.950;5.902;2023-07-13T05:47:11;101420.28;;;17.16;71.44
38466;BME280;24244;51.950;5.902;2023-07-13T05:49:40;101425.22;;;17.19;71.55
38466;BME280;24244;51.950;5.902;2023-07-13T05:52:07;101423.97;;;17.21;71.40
38466;BME280;24244;51.950;5.902;2023-07-13T05:54:35;101426.44;;;17.23;71.58
38466;BME280;24244;51.950;5.902;2023-07-13T05:57:04;101428.72;;;17.26;71.74
38466;BME280;24244;51.950;5.902;2023-07-13T05:59:30;101440.88;;;17.29;71.64
38466;BME280;24244;51.950;5.902;2023-07-13T06:01:57;101433.44;;;17.31;71.74
38466;BME280;24244;51.950;5.902;2023-07-13T06:04:25;101448.09;;;17.35;71.69
38466;BME280;24244;51.950;5.902;2023-07-13T06:06:52;101444.97;;;17.38;71.67
38466;BME280;24244;51.950;5.902;2023-07-13T06:09:19;101453.66;;;17.40;71.89
38466;BME280;24244;51.950;5.902;2023-07-13T06:11:46;101451.56;;;17.42;71.90
38466;BME280;24244;51.950;5.902;2023-07-13T06:14:14;101450.31;;;17.44;71.93
38466;BME280;24244;51.950;5.902;2023-07-13T06:16:41;101453.63;;;17.46;72.21
38466;BME280;24244;51.950;5.902;2023-07-13T06:19:08;101443.25;;;17.50;72.04
38466;BME280;24244;51.950;5.902;2023-07-13T06:21:35;101453.59;;;17.53;72.28
38466;BME280;24244;51.950;5.902;2023-07-13T06:24:02;101455.63;;;17.57;72.18
38466;BME280;24244;51.950;5.902;2023-07-13T06:26:29;101461.44;;;17.61;72.15
38466;BME280;24244;51.950;5.902;2023-07-13T06:28:56;101465.53;;;17.64;72.08
38466;BME280;24244;51.950;5.902;2023-07-13T06:31:24;101465.94;;;17.67;72.34
38466;BME280;24244;51.950;5.902;2023-07-13T06:33:51;101469.22;;;17.69;72.44
38466;BME280;24244;51.950;5.902;2023-07-13T06:36:17;101470.47;;;17.73;72.39
38466;BME280;24244;51.950;5.902;2023-07-13T06:38:45;101475.19;;;17.78;72.61
38466;BME280;24244;51.950;5.902;2023-07-13T06:41:13;101477.44;;;17.81;72.42
38466;BME280;24244;51.950;5.902;2023-07-13T06:43:40;101468.94;;;17.84;72.40
38466;BME280;24244;51.950;5.902;2023-07-13T06:46:07;101476.38;;;17.88;72.50
38466;BME280;24244;51.950;5.902;2023-07-13T06:48:35;101467.63;;;17.93;72.56
38466;BME280;24244;51.950;5.902;2023-07-13T06:51:03;101470.75;;;17.96;72.41
38466;BME280;24244;51.950;5.902;2023-07-13T06:53:30;101480.00;;;18.00;72.54
38466;BME280;24244;51.950;5.902;2023-07-13T06:55:57;101476.91;;;18.04;72.71
38466;BME280;24244;51.950;5.902;2023-07-13T06:58:23;101478.09;;;18.08;72.51
38466;BME280;24244;51.950;5.902;2023-07-13T07:00:50;101477.69;;;18.11;72.54
38466;BME280;24244;51.950;5.902;2023-07-13T07:03:18;101477.22;;;18.14;72.57
38466;BME280;24244;51.950;5.902;2023-07-13T07:05:47;101481.13;;;18.18;72.73
38466;BME280;24244;51.950;5.902;2023-07-13T07:08:14;101486.69;;;18.23;72.73
38466;BME280;24244;51.950;5.902;2023-07-13T07:10:41;101482.50;;;18.27;72.86
38466;BME280;24244;51.950;5.902;2023-07-13T07:13:09;101487.25;;;18.31;72.63
38466;BME280;24244;51.950;5.902;2023-07-13T07:15:36;101493.81;;;18.35;72.74
38466;BME280;24244;51.950;5.902;2023-07-13T07:18:03;101479.72;;;18.40;72.56
38466;BME280;24244;51.950;5.902;2023-07-13T07:20:30;101479.88;;;18.45;72.53
38466;BME280;24244;51.950;5.902;2023-07-13T07:23:00;101488.31;;;18.49;72.53
38466;BME280;24244;51.950;5.902;2023-07-13T07:25:27;101485.00;;;18.53;72.72
38466;BME280;24244;51.950;5.902;2023-07-13T07:27:58;101497.81;;;18.58;72.74
38466;BME280;24244;51.950;5.902;2023-07-13T07:30:28;101484.50;;;18.63;72.62
38466;BME280;24244;51.950;5.902;2023-07-13T07:32:58;101493.78;;;18.67;72.52
38466;BME280;24244;51.950;5.902;2023-07-13T07:35:27;101491.25;;;18.72;72.43
38466;BME280;24244;51.950;5.902;2023-07-13T07:37:58;101491.03;;;18.73;72.51
38466;BME280;24244;51.950;5.902;2023-07-13T07:40:27;101488.72;;;18.77;72.45
38466;BME280;24244;51.950;5.902;2023-07-13T07:42:57;101492.84;;;18.80;72.39
38466;BME280;24244;51.950;5.902;2023-07-13T07:45:26;101493.44;;;18.82;72.41
38466;BME280;24244;51.950;5.902;2023-07-13T07:47:53;101495.25;;;18.88;72.22
38466;BME280;24244;51.950;5.902;2023-07-13T07:50:21;101498.31;;;18.91;72.40
38466;BME280;24244;51.950;5.902;2023-07-13T07:52:48;101497.88;;;18.94;72.14
38466;BME280;24244;51.950;5.902;2023-07-13T07:55:15;101500.94;;;18.98;72.21
38466;BME280;24244;51.950;5.902;2023-07-13T07:57:46;101496.97;;;19.00;72.18
38466;BME280;24244;51.950;5.902;2023-07-13T08:00:18;101497.38;;;19.04;72.15
38466;BME280;24244;51.950;5.902;2023-07-13T08:02:50;101492.78;;;19.04;72.13
38466;BME280;24244;51.950;5.902;2023-07-13T08:05:20;101494.00;;;19.08;72.21
38466;BME280;24244;51.950;5.902;2023-07-13T08:08:02;101488.13;;;19.11;72.05
38466;BME280;24244;51.950;5.902;2023-07-13T08:10:29;101481.25;;;19.15;72.18
38466;BME280;24244;51.950;5.902;2023-07-13T08:12:58;101489.50;;;19.21;72.07
38466;BME280;24244;51.950;5.902;2023-07-13T08:15:28;101487.41;;;19.23;71.87
38466;BME280;24244;51.950;5.902;2023-07-13T08:17:55;101493.16;;;19.26;72.11
38466;BME280;24244;51.950;5.902;2023-07-13T08:20:23;101494.38;;;19.30;71.98
38466;BME280;24244;51.950;5.902;2023-07-13T08:22:50;101487.44;;;19.34;71.83
38466;BME280;24244;51.950;5.902;2023-07-13T08:25:17;101486.19;;;19.37;71.65
38466;BME280;24244;51.950;5.902;2023-07-13T08:27:44;101485.97;;;19.38;71.73
38466;BME280;24244;51.950;5.902;2023-07-13T08:30:12;101487.97;;;19.43;71.62
38466;BME280;24244;51.950;5.902;2023-07-13T08:32:38;101483.78;;;19.47;71.60
38466;BME280;24244;51.950;5.902;2023-07-13T08:35:06;101485.00;;;19.51;71.53
38466;BME280;24244;51.950;5.902;2023-07-13T08:37:33;101483.47;;;19.55;71.42
38466;BME280;24244;51.950;5.902;2023-07-13T08:40:00;101487.16;;;19.61;71.49
38466;BME280;24244;51.950;5.902;2023-07-13T08:42:32;101485.44;;;19.66;71.12
38466;BME280;24244;51.950;5.902;2023-07-13T08:45:08;101492.59;;;19.72;70.91
38466;BME280;24244;51.950;5.902;2023-07-13T08:47:49;101474.66;;;19.78;70.92
38466;BME280;24244;51.950;5.902;2023-07-13T08:50:24;101472.69;;;19.85;70.58
38466;BME280;24244;51.950;5.902;2023-07-13T08:52:54;101465.31;;;19.92;70.73
38466;BME280;24244;51.950;5.902;2023-07-13T08:55:26;101477.06;;;19.98;70.33
38466;BME280;24244;51.950;5.902;2023-07-13T08:58:00;101481.41;;;19.99;70.44
38466;BME280;24244;51.950;5.902;2023-07-13T09:00:34;101478.94;;;19.97;70.28
38466;BME280;24244;51.950;5.902;2023-07-13T09:03:12;101480.25;;;19.94;70.26
38466;BME280;24244;51.950;5.902;2023-07-13T09:05:49;101475.91;;;19.93;70.14
38466;BME280;24244;51.950;5.902;2023-07-13T09:08:31;101469.22;;;19.96;69.85
38466;BME280;24244;51.950;5.902;2023-07-13T09:11:08;101479.31;;;20.01;69.59
38466;BME280;24244;51.950;5.902;2023-07-13T09:13:47;101476.97;;;20.04;69.34
38466;BME280;24244;51.950;5.902;2023-07-13T09:16:16;101482.13;;;20.06;68.97
38466;BME280;24244;51.950;5.902;2023-07-13T09:18:47;101479.00;;;20.09;68.88
38466;BME280;24244;51.950;5.902;2023-07-13T09:21:17;101483.22;;;20.16;68.69
38466;BME280;24244;51.950;5.902;2023-07-13T09:23:47;101491.44;;;20.21;68.38
38466;BME280;24244;51.950;5.902;2023-07-13T09:26:18;101488.03;;;20.26;68.20
38466;BME280;24244;51.950;5.902;2023-07-13T09:28:48;101486.78;;;20.28;67.87
38466;BME280;24244;51.950;5.902;2023-07-13T09:31:20;101480.91;;;20.31;67.84
38466;BME280;24244;51.950;5.902;2023-07-13T09:33:51;101486.91;;;20.33;67.60
38466;BME280;24244;51.950;5.902;2023-07-13T09:36:21;101492.50;;;20.32;67.56
38466;BME280;24244;51.950;5.902;2023-07-13T09:38:58;101506.28;;;20.30;67.65
38466;BME280;24244;51.950;5.902;2023-07-13T09:41:29;101517.19;;;20.24;67.90
38466;BME280;24244;51.950;5.902;2023-07-13T09:44:18;101508.34;;;20.17;68.22
38466;BME280;24244;51.950;5.902;2023-07-13T09:46:54;101507.03;;;20.08;68.81
38466;BME280;24244;51.950;5.902;2023-07-13T09:49:25;101510.44;;;20.03;69.30
38466;BME280;24244;51.950;5.902;2023-07-13T09:51:58;101515.47;;;20.00;69.79
38466;BME280;24244;51.950;5.902;2023-07-13T09:54:27;101520.03;;;19.99;69.89
38466;BME280;24244;51.950;5.902;2023-07-13T09:56:55;101512.97;;;19.98;70.17
38466;BME280;24244;51.950;5.902;2023-07-13T09:59:26;101518.38;;;19.98;70.37
38466;BME280;24244;51.950;5.902;2023-07-13T10:01:53;101515.34;;;19.94;70.70
38466;BME280;24244;51.950;5.902;2023-07-13T10:04:33;101519.06;;;19.93;70.83
38466;BME280;24244;51.950;5.902;2023-07-13T10:07:07;101523.28;;;19.89;70.89
38466;BME280;24244;51.950;5.902;2023-07-13T10:09:54;101525.16;;;19.89;71.03
38466;BME280;24244;51.950;5.902;2023-07-13T10:12:22;101520.00;;;19.87;70.93
38466;BME280;24244;51.950;5.902;2023-07-13T10:14:54;101511.91;;;19.87;71.06
38466;BME280;24244;51.950;5.902;2023-07-13T10:17:38;101516.00;;;19.90;71.03
38466;BME280;24244;51.950;5.902;2023-07-13T10:20:08;101523.44;;;19.94;71.10
38466;BME280;24244;51.950;5.902;2023-07-13T10:22:45;101518.75;;;20.02;71.04
38466;BME280;24244;51.950;5.902;2023-07-13T10:25:19;101520.06;;;20.11;70.96
38466;BME280;24244;51.950;5.902;2023-07-13T10:27:50;101508.94;;;20.19;70.69
38466;BME280;24244;51.950;5.902;2023-07-13T10:30:21;101519.41;;;20.27;70.33
38466;BME280;24244;51.950;5.902;2023-07-13T10:32:52;101516.25;;;20.30;70.01
38466;BME280;24244;51.950;5.902;2023-07-13T10:35:21;101520.34;;;20.32;69.84
38466;BME280;24244;51.950;5.902;2023-07-13T10:37:54;101523.91;;;20.33;69.60
38466;BME280;24244;51.950;5.902;2023-07-13T10:40:33;101524.50;;;20.35;69.56
38466;BME280;24244;51.950;5.902;2023-07-13T10:43:06;101528.63;;;20.38;69.36
38466;BME280;24244;51.950;5.902;2023-07-13T10:45:40;101538.13;;;20.40;69.30
38466;BME280;24244;51.950;5.902;2023-07-13T10:48:09;101554.81;;;20.37;69.42
38466;BME280;24244;51.950;5.902;2023-07-13T10:50:45;101566.50;;;20.31;69.99
38466;BME280;24244;51.950;5.902;2023-07-13T10:53:18;101556.25;;;20.21;70.56
38466;BME280;24244;51.950;5.902;2023-07-13T10:55:56;101554.69;;;20.14;71.05
38466;BME280;24244;51.950;5.902;2023-07-13T10:58:33;101559.75;;;20.10;71.72
38466;BME280;24244;51.950;5.902;2023-07-13T11:01:08;101555.63;;;20.08;72.19
38466;BME280;24244;51.950;5.902;2023-07-13T11:03:37;101552.31;;;20.06;72.53
38466;BME280;24244;51.950;5.902;2023-07-13T11:06:08;101543.78;;;20.09;72.76
38466;BME280;24244;51.950;5.902;2023-07-13T11:08:37;101543.28;;;20.12;73.05
38466;BME280;24244;51.950;5.902;2023-07-13T11:11:33;101540.50;;;20.18;73.54
38466;BME280;24244;51.950;5.902;2023-07-13T11:14:04;101548.75;;;20.23;73.49
38466;BME280;24244;51.950;5.902;2023-07-13T11:16:43;101554.16;;;20.23;73.31
38466;BME280;24244;51.950;5.902;2023-07-13T11:22:42;101550.94;;;20.15;73.36
38466;BME280;24244;51.950;5.902;2023-07-13T11:25:26;101559.28;;;20.13;73.45
38466;BME280;24244;51.950;5.902;2023-07-13T11:28:17;101562.44;;;20.10;73.49
38466;BME280;24244;51.950;5.902;2023-07-13T11:30:47;101562.88;;;20.07;73.50
38466;BME280;24244;51.950;5.902;2023-07-13T11:33:17;101553.97;;;20.07;73.57
38466;BME280;24244;51.950;5.902;2023-07-13T11:35:51;101550.66;;;20.05;73.71
38466;BME280;24244;51.950;5.902;2023-07-13T11:38:22;101551.50;;;20.05;73.88
38466;BME280;24244;51.950;5.902;2023-07-13T11:40:52;101550.22;;;20.08;73.79
38466;BME280;24244;51.950;5.902;2023-07-13T11:43:22;101560.09;;;20.14;73.67
38466;BME280;24244;51.950;5.902;2023-07-13T11:45:52;101559.16;;;20.20;73.72
38466;BME280;24244;51.950;5.902;2023-07-13T11:48:22;101555.53;;;20.26;73.50
38466;BME280;24244;51.950;5.902;2023-07-13T11:50:54;101560.03;;;20.32;73.48
38466;BME280;24244;51.950;5.902;2023-07-13T11:53:27;101558.31;;;20.38;72.64
38466;BME280;24244;51.950;5.902;2023-07-13T11:55:56;101557.63;;;20.42;72.50
38466;BME280;24244;51.950;5.902;2023-07-13T11:58:25;101546.38;;;20.45;72.56
38466;BME280;24244;51.950;5.902;2023-07-13T12:00:52;101554.00;;;20.48;72.57
38466;BME280;24244;51.950;5.902;2023-07-13T12:03:22;101566.66;;;20.48;72.23
38466;BME280;24244;51.950;5.902;2023-07-13T12:05:59;101570.69;;;20.45;72.24
38466;BME280;24244;51.950;5.902;2023-07-13T12:08:29;101570.53;;;20.40;72.74
38466;BME280;24244;51.950;5.902;2023-07-13T12:10:59;101566.88;;;20.35;72.69
38466;BME280;24244;51.950;5.902;2023-07-13T12:13:27;101563.81;;;20.31;73.14
38466;BME280;24244;51.950;5.902;2023-07-13T12:15:57;101567.31;;;20.31;73.50
38466;BME280;24244;51.950;5.902;2023-07-13T12:18:29;101575.19;;;20.33;73.82
38466;BME280;24244;51.950;5.902;2023-07-13T12:20:58;101575.19;;;20.33;73.96
38466;BME280;24244;51.950;5.902;2023-07-13T12:23:30;101567.94;;;20.33;74.00
38466;BME280;24244;51.950;5.902;2023-07-13T12:25:58;101565.22;;;20.33;74.04
38466;BME280;24244;51.950;5.902;2023-07-13T12:28:31;101569.56;;;20.35;74.03
38466;BME280;24244;51.950;5.902;2023-07-13T12:30:59;101561.25;;;20.36;74.07
38466;BME280;24244;51.950;5.902;2023-07-13T12:33:29;101555.63;;;20.38;74.28
38466;BME280;24244;51.950;5.902;2023-07-13T12:35:56;101558.66;;;20.41;74.31
38466;BME280;24244;51.950;5.902;2023-07-13T12:38:25;101551.28;;;20.48;74.48
38466;BME280;24244;51.950;5.902;2023-07-13T12:40:53;101547.09;;;20.52;74.26
38466;BME280;24244;51.950;5.902;2023-07-13T12:43:22;101559.66;;;20.58;74.31
38466;BME280;24244;51.950;5.902;2023-07-13T12:45:57;101552.25;;;20.65;74.03
38466;BME280;24244;51.950;5.902;2023-07-13T12:48:25;101554.63;;;20.74;73.40
38466;BME280;24244;51.950;5.902;2023-07-13T12:51:11;101548.88;;;20.82;73.14
38466;BME280;24244;51.950;5.902;2023-07-13T12:53:41;101554.63;;;20.85;72.62
38466;BME280;24244;51.950;5.902;2023-07-13T12:56:16;101559.78;;;20.87;72.42
38466;BME280;24244;51.950;5.902;2023-07-13T12:58:46;101563.31;;;20.87;72.39
38466;BME280;24244;51.950;5.902;2023-07-13T13:01:17;101563.31;;;20.87;72.13
38466;BME280;24244;51.950;5.902;2023-07-13T13:03:47;101558.38;;;20.84;72.17
38466;BME280;24244;51.950;5.902;2023-07-13T13:06:23;101557.56;;;20.84;72.25